sensor_id;sensor_type;location;lat;lon;timestamp;temperature;humidity
16974;DHT22;8603;46.944;7.412;2023-04-01T00:00:06;7.00;99.90
16974;DHT22;8603;46.944;7.412;2023-04-01T00:02:32;7.00;99.90
16974;DHT22;8603;46.944;7.412;2023-04-01T00:04:58;7.00;99.90
16974;DHT22;8603;46.944;7.412;2023-04-01T00:07:23;7.00;99.90
16974;DHT22;8603;46.944;7.412;2023-04-01T00:09:49;7.10;99.90
16974;DHT22;8603;46.944;7.412;2023-04-01T00:12:17;7.20;99.90
16974;DHT22;8603;46.944;7.412;2023-04-01T00:14:43;7.10;99.90
16974;DHT22;8603;46.944;7.412;2023-04-01T00:17:09;7.00;99.90
16974;DHT22;8603;46.944;7.412;2023-04-01T00:19:34;7.00;99.90
16974;DHT22;8603;46.944;7.412;2023-04-01T00:22:00;7.00;99.90
16974;DHT22;8603;46.944;7.412;2023-04-01T00:24:26;6.90;99.90
16974;DHT22;8603;46.944;7.412;2023-04-01T00:26:52;6.90;99.90
16974;DHT22;8603;46.944;7.412;2023-04-01T00:29:17;7.00;99.90
16974;DHT22;8603;46.944;7.412;2023-04-01T00:31:43;7.00;99.90
16974;DHT22;8603;46.944;7.412;2023-04-01T00:34:09;6.90;99.90
16974;DHT22;8603;46.944;7.412;2023-04-01T00:36:39;7.00;99.90
16974;DHT22;8603;46.944;7.412;2023-04-01T00:39:05;7.00;99.90
16974;DHT22;8603;46.944;7.412;2023-04-01T00:41:31;7.00;99.90
16974;DHT22;8603;46.944;7.412;2023-04-01T00:47:07;7.10;99.90
16974;DHT22;8603;46.944;7.412;2023-04-01T00:49:40;7.10;99.90
16974;DHT22;8603;46.944;7.412;2023-04-01T00:52:13;7.20;99.90
16974;DHT22;8603;46.944;7.412;2023-04-01T00:54:46;7.30;99.90
16974;DHT22;8603;46.944;7.412;2023-04-01T00:57:34;7.30;99.90
16974;DHT22;8603;46.944;7.412;2023-04-01T01:00:06;7.30;99.90
16974;DHT22;8603;46.944;7.412;2023-04-01T01:02:34;7.20;99.90
16974;DHT22;8603;46.944;7.412;2023-04-01T01:05:00;7.20;99.90
16974;DHT22;8603;46.944;7.412;2023-04-01T01:12:57;7.20;99.90
16974;DHT22;8603;46.944;7.412;2023-04-01T01:15:46;7.20;99.90
16974;DHT22;8603;46.944;7.412;2023-04-01T01:18:23;7.20;99.90
16974;DHT22;8603;46.944;7.412;2023-04-01T01:26:52;6.90;99.90
16974;DHT22;8603;46.944;7.412;2023-04-01T01:29:29;6.90;99.90
16974;DHT22;8603;46.944;7.412;2023-04-01T01:37:12;6.60;99.90
16974;DHT22;8603;46.944;7.412;2023-04-01T01:39:55;6.60;99.90
16974;DHT22;8603;46.944;7.412;2023-04-01T01:42:23;6.70;99.90
16974;DHT22;8603;46.944;7.412;2023-04-01T01:44:54;6.70;99.90
16974;DHT22;8603;46.944;7.412;2023-04-01T01:47:22;6.70;99.90
16974;DHT22;8603;46.944;7.412;2023-04-01T01:49:50;6.70;99.90
16974;DHT22;8603;46.944;7.412;2023-04-01T01:52:23;6.70;99.90
16974;DHT22;8603;46.944;7.412;2023-04-01T01:54:59;6.70;99.90
16974;DHT22;8603;46.944;7.412;2023-04-01T01:57:34;6.80;99.90
16974;DHT22;8603;46.944;7.412;2023-04-01T02:00:09;6.90;99.90
16974;DHT22;8603;46.944;7.412;2023-04-01T02:02:46;6.90;99.90
16974;DHT22;8603;46.944;7.412;2023-04-01T02:05:20;7.00;99.90
16974;DHT22;8603;46.944;7.412;2023-04-01T02:07:57;7.00;99.90
16974;DHT22;8603;46.944;7.412;2023-04-01T02:10:31;6.90;99.90
16974;DHT22;8603;46.944;7.412;2023-04-01T02:13:04;7.00;99.90
16974;DHT22;8603;46.944;7.412;2023-04-01T02:15:35;7.10;99.90
16974;DHT22;8603;46.944;7.412;2023-04-01T02:18:08;7.10;99.90
16974;DHT22;8603;46.944;7.412;2023-04-01T02:20:34;7.10;99.90
16974;DHT22;8603;46.944;7.412;2023-04-01T02:23:05;7.10;99.90
16974;DHT22;8603;46.944;7.412;2023-04-01T02:25:35;7.10;99.90
16974;DHT22;8603;46.944;7.412;2023-04-01T02:28:06;7.00;99.90
16974;DHT22;8603;46.944;7.412;2023-04-01T02:30:47;7.00;99.90
16974;DHT22;8603;46.944;7.412;2023-04-01T02:33:17;6.90;99.90
16974;DHT22;8603;46.944;7.412;2023-04-01T02:35:44;6.90;99.90
16974;DHT22;8603;46.944;7.412;2023-04-01T02:38:09;6.90;99.90
16974;DHT22;8603;46.944;7.412;2023-04-01T02:40:50;6.90;99.90
16974;DHT22;8603;46.944;7.412;2023-04-01T02:43:21;6.80;99.90
16974;DHT22;8603;46.944;7.412;2023-04-01T02:45:50;6.80;99.90
16974;DHT22;8603;46.944;7.412;2023-04-01T02:48:15;6.80;99.90
16974;DHT22;8603;46.944;7.412;2023-04-01T02:50:41;6.70;99.90
16974;DHT22;8603;46.944;7.412;2023-04-01T02:53:16;6.80;99.90
16974;DHT22;8603;46.944;7.412;2023-04-01T02:55:48;6.80;99.90
16974;DHT22;8603;46.944;7.412;2023-04-01T02:58:26;6.80;99.90
16974;DHT22;8603;46.944;7.412;2023-04-01T03:00:52;6.80;99.90
16974;DHT22;8603;46.944;7.412;2023-04-01T03:03:18;6.80;99.90
16974;DHT22;8603;46.944;7.412;2023-04-01T03:05:51;6.80;99.90
16974;DHT22;8603;46.944;7.412;2023-04-01T03:08:22;6.90;99.90
16974;DHT22;8603;46.944;7.412;2023-04-01T03:10:48;7.00;99.90
16974;DHT22;8603;46.944;7.412;2023-04-01T03:13:13;7.10;99.90
16974;DHT22;8603;46.944;7.412;2023-04-01T03:15:42;7.10;99.90
16974;DHT22;8603;46.944;7.412;2023-04-01T03:18:07;7.10;99.90
16974;DHT22;8603;46.944;7.412;2023-04-01T03:20:33;7.10;99.90
16974;DHT22;8603;46.944;7.412;2023-04-01T03:23:01;7.20;99.90
16974;DHT22;8603;46.944;7.412;2023-04-01T03:25:27;7.20;99.90
16974;DHT22;8603;46.944;7.412;2023-04-01T03:27:53;7.20;99.90
16974;DHT22;8603;46.944;7.412;2023-04-01T03:30:19;7.20;99.90
16974;DHT22;8603;46.944;7.412;2023-04-01T03:32:45;7.00;99.90
16974;DHT22;8603;46.944;7.412;2023-04-01T03:35:11;7.00;99.90
16974;DHT22;8603;46.944;7.412;2023-04-01T03:37:37;7.10;99.90
16974;DHT22;8603;46.944;7.412;2023-04-01T03:40:09;7.30;99.90
16974;DHT22;8603;46.944;7.412;2023-04-01T03:42:35;7.10;99.90
16974;DHT22;8603;46.944;7.412;2023-04-01T03:45:04;7.30;99.90
16974;DHT22;8603;46.944;7.412;2023-04-01T03:47:29;7.20;99.90
16974;DHT22;8603;46.944;7.412;2023-04-01T03:49:58;7.20;99.90
16974;DHT22;8603;46.944;7.412;2023-04-01T03:52:24;7.20;99.90
16974;DHT22;8603;46.944;7.412;2023-04-01T03:54:50;7.20;99.90
16974;DHT22;8603;46.944;7.412;2023-04-01T03:57:16;7.20;99.90
16974;DHT22;8603;46.944;7.412;2023-04-01T03:59:41;7.20;99.90
16974;DHT22;8603;46.944;7.412;2023-04-01T04:02:07;7.20;99.90
16974;DHT22;8603;46.944;7.412;2023-04-01T04:04:35;7.10;99.90
16974;DHT22;8603;46.944;7.412;2023-04-01T04:07:01;7.20;99.90
16974;DHT22;8603;46.944;7.412;2023-04-01T04:09:27;7.10;99.90
16974;DHT22;8603;46.944;7.412;2023-04-01T04:11:55;7.20;99.90
16974;DHT22;8603;46.944;7.412;2023-04-01T04:14:26;7.00;99.90
16974;DHT22;8603;46.944;7.412;2023-04-01T04:16:54;7.10;99.90
16974;DHT22;8603;46.944;7.412;2023-04-01T04:19:20;7.10;99.90
16974;DHT22;8603;46.944;7.412;2023-04-01T04:21:55;7.00;99.90
16974;DHT22;8603;46.944;7.412;2023-04-01T04:24:26;6.90;99.90
16974;DHT22;8603;46.944;7.412;2023-04-01T04:26:52;6.90;99.90
16974;DHT22;8603;46.944;7.412;2023-04-01T04:29:18;6.90;99.90
16974;DHT22;8603;46.944;7.412;2023-04-01T04:31:44;6.80;99.90
16974;DHT22;8603;46.944;7.412;2023-04-01T04:34:30;6.80;99.90
16974;DHT22;8603;46.944;7.412;2023-04-01T04:36:58;6.80;99.90
16974;DHT22;8603;46.944;7.412;2023-04-01T04:39:31;6.90;99.90
16974;DHT22;8603;46.944;7.412;2023-04-01T04:41:59;6.90;99.90
16974;DHT22;8603;46.944;7.412;2023-04-01T04:44:25;6.80;99.90
16974;DHT22;8603;46.944;7.412;2023-04-01T04:46:51;6.70;99.90
16974;DHT22;8603;46.944;7.412;2023-04-01T04:49:16;6.70;99.90
16974;DHT22;8603;46.944;7.412;2023-04-01T04:51:43;6.60;99.90
16974;DHT22;8603;46.944;7.412;2023-04-01T04:54:12;6.50;99.90
16974;DHT22;8603;46.944;7.412;2023-04-01T04:56:42;6.60;99.90
16974;DHT22;8603;46.944;7.412;2023-04-01T04:59:08;6.60;99.90
16974;DHT22;8603;46.944;7.412;2023-04-01T05:01:34;6.70;99.90
16974;DHT22;8603;46.944;7.412;2023-04-01T05:04:00;6.60;99.90
16974;DHT22;8603;46.944;7.412;2023-04-01T05:06:25;6.70;99.90
16974;DHT22;8603;46.944;7.412;2023-04-01T05:08:55;6.70;99.90
16974;DHT22;8603;46.944;7.412;2023-04-01T05:11:23;6.60;99.90
16974;DHT22;8603;46.944;7.412;2023-04-01T05:13:51;6.70;99.90
16974;DHT22;8603;46.944;7.412;2023-04-01T05:16:25;6.80;99.90
16974;DHT22;8603;46.944;7.412;2023-04-01T05:18:51;6.70;99.90
16974;DHT22;8603;46.944;7.412;2023-04-01T05:21:17;6.80;99.90
16974;DHT22;8603;46.944;7.412;2023-04-01T05:23:43;6.70;99.90
16974;DHT22;8603;46.944;7.412;2023-04-01T05:26:12;6.80;99.90
16974;DHT22;8603;46.944;7.412;2023-04-01T05:28:45;6.80;99.90
16974;DHT22;8603;46.944;7.412;2023-04-01T05:31:14;6.90;99.90
16974;DHT22;8603;46.944;7.412;2023-04-01T05:33:49;6.80;99.90
16974;DHT22;8603;46.944;7.412;2023-04-01T05:36:22;6.80;99.90
16974;DHT22;8603;46.944;7.412;2023-04-01T05:38:57;6.90;99.90
16974;DHT22;8603;46.944;7.412;2023-04-01T05:41:54;7.00;99.90
16974;DHT22;8603;46.944;7.412;2023-04-01T05:44:19;7.20;99.90
16974;DHT22;8603;46.944;7.412;2023-04-01T05:46:51;7.30;99.90
16974;DHT22;8603;46.944;7.412;2023-04-01T05:49:19;7.40;99.90
16974;DHT22;8603;46.944;7.412;2023-04-01T05:51:44;7.60;99.90
16974;DHT22;8603;46.944;7.412;2023-04-01T05:54:15;7.70;99.90
16974;DHT22;8603;46.944;7.412;2023-04-01T05:56:44;7.80;99.90
16974;DHT22;8603;46.944;7.412;2023-04-01T05:59:16;7.80;99.90
16974;DHT22;8603;46.944;7.412;2023-04-01T06:01:41;7.80;99.90
16974;DHT22;8603;46.944;7.412;2023-04-01T06:04:24;7.80;99.90
16974;DHT22;8603;46.944;7.412;2023-04-01T06:06:50;7.80;99.90
16974;DHT22;8603;46.944;7.412;2023-04-01T06:09:27;7.80;99.90
16974;DHT22;8603;46.944;7.412;2023-04-01T06:23:31;7.70;99.90
16974;DHT22;8603;46.944;7.412;2023-04-01T06:26:39;7.80;99.90
16974;DHT22;8603;46.944;7.412;2023-04-01T06:32:03;7.80;99.90
16974;DHT22;8603;46.944;7.412;2023-04-01T06:41:16;7.70;99.90
16974;DHT22;8603;46.944;7.412;2023-04-01T06:44:23;7.60;99.90
16974;DHT22;8603;46.944;7.412;2023-04-01T06:46:59;7.70;99.90
16974;DHT22;8603;46.944;7.412;2023-04-01T06:50:17;7.80;99.90
16974;DHT22;8603;46.944;7.412;2023-04-01T06:52:37;7.80;99.90
16974;DHT22;8603;46.944;7.412;2023-04-01T06:55:55;7.80;99.90
16974;DHT22;8603;46.944;7.412;2023-04-01T06:58:29;7.90;99.90
16974;DHT22;8603;46.944;7.412;2023-04-01T07:01:03;8.00;99.90
16974;DHT22;8603;46.944;7.412;2023-04-01T07:04:29;8.10;99.90
16974;DHT22;8603;46.944;7.412;2023-04-01T07:06:40;8.40;99.90
16974;DHT22;8603;46.944;7.412;2023-04-01T07:09:19;8.60;99.90
16974;DHT22;8603;46.944;7.412;2023-04-01T07:15:09;8.90;99.90
16974;DHT22;8603;46.944;7.412;2023-04-01T07:17:39;9.10;99.90
16974;DHT22;8603;46.944;7.412;2023-04-01T07:20:31;9.00;99.90
16974;DHT22;8603;46.944;7.412;2023-04-01T07:22:59;9.10;99.90
16974;DHT22;8603;46.944;7.412;2023-04-01T07:25:43;9.10;99.90
16974;DHT22;8603;46.944;7.412;2023-04-01T07:28:32;9.20;99.90
16974;DHT22;8603;46.944;7.412;2023-04-01T07:34:19;9.20;99.90
16974;DHT22;8603;46.944;7.412;2023-04-01T07:37:06;9.30;99.90
16974;DHT22;8603;46.944;7.412;2023-04-01T07:51:06;9.30;99.90
16974;DHT22;8603;46.944;7.412;2023-04-01T07:56:51;9.20;99.90
16974;DHT22;8603;46.944;7.412;2023-04-01T07:59:58;9.20;99.90
16974;DHT22;8603;46.944;7.412;2023-04-01T08:02:49;9.30;99.90
16974;DHT22;8603;46.944;7.412;2023-04-01T08:14:03;9.10;99.90
16974;DHT22;8603;46.944;7.412;2023-04-01T08:17:16;9.10;99.90
16974;DHT22;8603;46.944;7.412;2023-04-01T08:20:37;9.20;99.90
16974;DHT22;8603;46.944;7.412;2023-04-01T08:23:38;9.20;99.90
16974;DHT22;8603;46.944;7.412;2023-04-01T08:26:11;9.10;99.90
16974;DHT22;8603;46.944;7.412;2023-04-01T08:28:50;9.10;99.90
16974;DHT22;8603;46.944;7.412;2023-04-01T08:34:21;9.20;99.90
16974;DHT22;8603;46.944;7.412;2023-04-01T08:37:14;9.30;99.90
16974;DHT22;8603;46.944;7.412;2023-04-01T08:45:07;9.70;99.90
16974;DHT22;8603;46.944;7.412;2023-04-01T08:51:02;9.90;99.90
16974;DHT22;8603;46.944;7.412;2023-04-01T08:56:33;10.00;99.90
16974;DHT22;8603;46.944;7.412;2023-04-01T08:59:14;9.90;99.90
16974;DHT22;8603;46.944;7.412;2023-04-01T09:16:27;10.00;99.90
16974;DHT22;8603;46.944;7.412;2023-04-01T09:20:09;10.00;99.90
16974;DHT22;8603;46.944;7.412;2023-04-01T09:22:42;10.00;99.90
16974;DHT22;8603;46.944;7.412;2023-04-01T09:25:21;9.90;99.90
16974;DHT22;8603;46.944;7.412;2023-04-01T09:28:02;10.00;99.90
16974;DHT22;8603;46.944;7.412;2023-04-01T09:36:38;10.20;99.90
16974;DHT22;8603;46.944;7.412;2023-04-01T09:42:53;10.30;99.90
16974;DHT22;8603;46.944;7.412;2023-04-01T09:45:56;10.40;99.90
16974;DHT22;8603;46.944;7.412;2023-04-01T10:01:45;10.50;99.90
16974;DHT22;8603;46.944;7.412;2023-04-01T10:10:30;10.30;99.90
16974;DHT22;8603;46.944;7.412;2023-04-01T10:16:11;10.60;99.90
16974;DHT22;8603;46.944;7.412;2023-04-01T10:30:54;11.30;99.90
16974;DHT22;8603;46.944;7.412;2023-04-01T10:36:47;11.90;99.90
16974;DHT22;8603;46.944;7.412;2023-04-01T10:42:39;12.60;99.90
16974;DHT22;8603;46.944;7.412;2023-04-01T10:45:32;12.70;99.90
16974;DHT22;8603;46.944;7.412;2023-04-01T10:48:12;12.80;99.90
16974;DHT22;8603;46.944;7.412;2023-04-01T11:18:06;13.60;99.90
16974;DHT22;8603;46.944;7.412;2023-04-01T12:02:13;13.80;99.90
16974;DHT22;8603;46.944;7.412;2023-04-01T12:11:33;14.30;99.90
16974;DHT22;8603;46.944;7.412;2023-04-01T12:24:03;14.30;99.90
16974;DHT22;8603;46.944;7.412;2023-04-01T12:50:56;13.50;99.90
16974;DHT22;8603;46.944;7.412;2023-04-01T13:12:13;14.70;99.90
16974;DHT22;8603;46.944;7.412;2023-04-01T13:33:40;14.60;99.90
16974;DHT22;8603;46.944;7.412;2023-04-01T13:45:09;14.40;99.90
16974;DHT22;8603;46.944;7.412;2023-04-01T13:47:51;14.60;99.90
16974;DHT22;8603;46.944;7.412;2023-04-01T14:00:12;14.80;99.90
16974;DHT22;8603;46.944;7.412;2023-04-01T14:03:26;14.80;99.90
16974;DHT22;8603;46.944;7.412;2023-04-01T14:06:31;14.50;99.90
16974;DHT22;8603;46.944;7.412;2023-04-01T14:16:00;14.30;99.90
16974;DHT22;8603;46.944;7.412;2023-04-01T14:37:25;14.30;99.90
16974;DHT22;8603;46.944;7.412;2023-04-01T15:41:59;10.80;99.90
16974;DHT22;8603;46.944;7.412;2023-04-01T16:14:50;10.80;99.90
16974;DHT22;8603;46.944;7.412;2023-04-01T16:35:42;10.80;99.90
16974;DHT22;8603;46.944;7.412;2023-04-01T22:20:38;6.60;99.90
16974;DHT22;8603;46.944;7.412;2023-04-01T22:23:34;6.40;99.90
16974;DHT22;8603;46.944;7.412;2023-04-01T22:55:26;6.20;99.90
16974;DHT22;8603;46.944;7.412;2023-04-01T22:58:00;6.20;99.90
16974;DHT22;8603;46.944;7.412;2023-04-01T23:04:45;6.30;99.90
16974;DHT22;8603;46.944;7.412;2023-04-01T23:10:03;6.40;99.90
16974;DHT22;8603;46.944;7.412;2023-04-01T23:12:34;6.40;99.90
16974;DHT22;8603;46.944;7.412;2023-04-01T23:15:05;6.50;99.90
16974;DHT22;8603;46.944;7.412;2023-04-01T23:26:40;6.20;99.90
16974;DHT22;8603;46.944;7.412;2023-04-01T23:29:19;6.10;99.90
16974;DHT22;8603;46.944;7.412;2023-04-01T23:32:03;6.10;99.90
16974;DHT22;8603;46.944;7.412;2023-04-01T23:35:11;6.10;99.90
16974;DHT22;8603;46.944;7.412;2023-04-01T23:38:10;6.00;99.90
16974;DHT22;8603;46.944;7.412;2023-04-01T23:40:55;6.00;99.90
16974;DHT22;8603;46.944;7.412;2023-04-01T23:47:54;5.90;99.90
16974;DHT22;8603;46.944;7.412;2023-04-01T23:54:33;5.90;99.90
16974;DHT22;8603;46.944;7.412;2023-04-01T23:58:00;5.80;99.90
